sensor_id;sensor_type;location;lat;lon;timestamp;P1;durP1;ratioP1;P2;durP2;ratioP2
29358;SDS011;16347;53.232;6.556;2023-09-19T00:00:40;8.80;;;2.10;;
29358;SDS011;16347;53.232;6.556;2023-09-19T00:03:09;21.45;;;2.42;;
29358;SDS011;16347;53.232;6.556;2023-09-19T00:05:38;14.73;;;2.80;;
29358;SDS011;16347;53.232;6.556;2023-09-19T00:08:11;11.88;;;2.17;;
29358;SDS011;16347;53.232;6.556;2023-09-19T00:10:40;12.75;;;2.58;;
29358;SDS011;16347;53.232;6.556;2023-09-19T00:13:09;17.20;;;2.15;;
29358;SDS011;16347;53.232;6.556;2023-09-19T00:15:43;10.10;;;1.95;;
29358;SDS011;16347;53.232;6.556;2023-09-19T00:18:16;8.52;;;2.25;;
29358;SDS011;16347;53.232;6.556;2023-09-19T00:20:46;13.60;;;1.80;;
29358;SDS011;16347;53.232;6.556;2023-09-19T00:23:16;13.50;;;1.80;;
29358;SDS011;16347;53.232;6.556;2023-09-19T00:25:46;14.35;;;2.25;;
29358;SDS011;16347;53.232;6.556;2023-09-19T00:28:14;17.67;;;2.38;;
29358;SDS011;16347;53.232;6.556;2023-09-19T00:30:43;13.00;;;2.20;;
29358;SDS011;16347;53.232;6.556;2023-09-19T00:33:11;10.60;;;2.13;;
29358;SDS011;16347;53.232;6.556;2023-09-19T00:35:46;8.48;;;1.75;;
29358;SDS011;16347;53.232;6.556;2023-09-19T00:38:14;14.02;;;2.10;;
29358;SDS011;16347;53.232;6.556;2023-09-19T00:40:44;20.38;;;1.95;;
29358;SDS011;16347;53.232;6.556;2023-09-19T00:43:12;12.77;;;2.20;;
29358;SDS011;16347;53.232;6.556;2023-09-19T00:45:42;13.90;;;2.42;;
29358;SDS011;16347;53.232;6.556;2023-09-19T00:48:14;13.13;;;2.40;;
29358;SDS011;16347;53.232;6.556;2023-09-19T00:50:44;13.00;;;2.25;;
29358;SDS011;16347;53.232;6.556;2023-09-19T00:53:15;12.82;;;2.00;;
29358;SDS011;16347;53.232;6.556;2023-09-19T00:55:47;13.80;;;2.60;;
29358;SDS011;16347;53.232;6.556;2023-09-19T00:58:17;13.77;;;2.45;;
29358;SDS011;16347;53.232;6.556;2023-09-19T01:00:47;13.98;;;2.10;;
29358;SDS011;16347;53.232;6.556;2023-09-19T01:03:16;8.05;;;2.13;;
29358;SDS011;16347;53.232;6.556;2023-09-19T01:05:45;16.65;;;2.20;;
29358;SDS011;16347;53.232;6.556;2023-09-19T01:08:13;11.02;;;2.55;;
29358;SDS011;16347;53.232;6.556;2023-09-19T01:10:43;24.10;;;2.50;;
29358;SDS011;16347;53.232;6.556;2023-09-19T01:13:21;7.93;;;1.90;;
29358;SDS011;16347;53.232;6.556;2023-09-19T01:15:58;10.68;;;2.10;;
29358;SDS011;16347;53.232;6.556;2023-09-19T01:18:35;10.40;;;1.88;;
29358;SDS011;16347;53.232;6.556;2023-09-19T01:21:08;19.45;;;2.78;;
29358;SDS011;16347;53.232;6.556;2023-09-19T01:23:59;12.57;;;2.15;;
29358;SDS011;16347;53.232;6.556;2023-09-19T01:27:02;17.33;;;2.17;;
29358;SDS011;16347;53.232;6.556;2023-09-19T01:29:45;11.52;;;2.03;;
29358;SDS011;16347;53.232;6.556;2023-09-19T01:32:16;15.65;;;2.53;;
29358;SDS011;16347;53.232;6.556;2023-09-19T01:34:48;14.60;;;2.38;;
29358;SDS011;16347;53.232;6.556;2023-09-19T01:37:20;10.40;;;2.10;;
29358;SDS011;16347;53.232;6.556;2023-09-19T01:39:53;12.27;;;2.10;;
29358;SDS011;16347;53.232;6.556;2023-09-19T01:42:26;11.60;;;1.75;;
29358;SDS011;16347;53.232;6.556;2023-09-19T01:45:03;16.17;;;2.13;;
29358;SDS011;16347;53.232;6.556;2023-09-19T01:47:42;15.55;;;2.42;;
29358;SDS011;16347;53.232;6.556;2023-09-19T01:50:17;10.40;;;2.08;;
29358;SDS011;16347;53.232;6.556;2023-09-19T01:52:57;14.32;;;2.33;;
29358;SDS011;16347;53.232;6.556;2023-09-19T01:55:30;16.85;;;2.38;;
29358;SDS011;16347;53.232;6.556;2023-09-19T01:58:12;13.35;;;1.98;;
29358;SDS011;16347;53.232;6.556;2023-09-19T02:00:43;12.63;;;2.58;;
29358;SDS011;16347;53.232;6.556;2023-09-19T02:03:18;8.70;;;2.47;;
29358;SDS011;16347;53.232;6.556;2023-09-19T02:05:52;8.90;;;2.28;;
29358;SDS011;16347;53.232;6.556;2023-09-19T02:08:21;13.35;;;2.85;;
29358;SDS011;16347;53.232;6.556;2023-09-19T02:10:50;14.32;;;2.10;;
29358;SDS011;16347;53.232;6.556;2023-09-19T02:13:19;10.20;;;2.30;;
29358;SDS011;16347;53.232;6.556;2023-09-19T02:15:51;11.10;;;1.88;;
29358;SDS011;16347;53.232;6.556;2023-09-19T02:18:20;9.30;;;2.33;;
29358;SDS011;16347;53.232;6.556;2023-09-19T02:20:48;11.85;;;2.00;;
29358;SDS011;16347;53.232;6.556;2023-09-19T02:23:17;13.98;;;2.13;;
29358;SDS011;16347;53.232;6.556;2023-09-19T02:25:51;8.68;;;1.95;;
29358;SDS011;16347;53.232;6.556;2023-09-19T02:28:20;11.55;;;2.28;;
29358;SDS011;16347;53.232;6.556;2023-09-19T02:30:50;13.48;;;2.28;;
29358;SDS011;16347;53.232;6.556;2023-09-19T02:33:18;9.52;;;2.28;;
29358;SDS011;16347;53.232;6.556;2023-09-19T02:35:47;13.23;;;2.47;;
29358;SDS011;16347;53.232;6.556;2023-09-19T02:38:15;16.27;;;2.45;;
29358;SDS011;16347;53.232;6.556;2023-09-19T02:40:48;13.07;;;2.05;;
29358;SDS011;16347;53.232;6.556;2023-09-19T02:43:15;14.57;;;2.08;;
29358;SDS011;16347;53.232;6.556;2023-09-19T02:45:44;11.63;;;2.17;;
29358;SDS011;16347;53.232;6.556;2023-09-19T02:48:12;10.45;;;2.28;;
29358;SDS011;16347;53.232;6.556;2023-09-19T02:50:41;9.35;;;2.30;;
29358;SDS011;16347;53.232;6.556;2023-09-19T02:53:11;8.25;;;2.10;;
29358;SDS011;16347;53.232;6.556;2023-09-19T02:55:40;10.90;;;1.92;;
29358;SDS011;16347;53.232;6.556;2023-09-19T02:58:09;17.00;;;2.67;;
29358;SDS011;16347;53.232;6.556;2023-09-19T03:00:37;12.00;;;2.17;;
29358;SDS011;16347;53.232;6.556;2023-09-19T03:03:08;11.48;;;2.10;;
29358;SDS011;16347;53.232;6.556;2023-09-19T03:05:36;16.80;;;2.45;;
29358;SDS011;16347;53.232;6.556;2023-09-19T03:08:05;9.95;;;1.92;;
29358;SDS011;16347;53.232;6.556;2023-09-19T03:10:34;11.88;;;2.60;;
29358;SDS011;16347;53.232;6.556;2023-09-19T03:13:04;13.55;;;2.60;;
29358;SDS011;16347;53.232;6.556;2023-09-19T03:15:32;13.77;;;2.03;;
29358;SDS011;16347;53.232;6.556;2023-09-19T03:18:00;10.38;;;2.08;;
29358;SDS011;16347;53.232;6.556;2023-09-19T03:20:29;15.05;;;1.80;;
29358;SDS011;16347;53.232;6.556;2023-09-19T03:22:56;16.63;;;2.38;;
29358;SDS011;16347;53.232;6.556;2023-09-19T03:25:24;12.73;;;2.47;;
29358;SDS011;16347;53.232;6.556;2023-09-19T03:27:53;10.48;;;2.70;;
29358;SDS011;16347;53.232;6.556;2023-09-19T03:30:25;9.63;;;2.03;;
29358;SDS011;16347;53.232;6.556;2023-09-19T03:32:52;6.10;;;1.55;;
29358;SDS011;16347;53.232;6.556;2023-09-19T03:35:20;14.40;;;1.77;;
29358;SDS011;16347;53.232;6.556;2023-09-19T03:37:48;10.63;;;2.33;;
29358;SDS011;16347;53.232;6.556;2023-09-19T03:40:19;14.15;;;2.63;;
29358;SDS011;16347;53.232;6.556;2023-09-19T03:42:48;5.82;;;1.60;;
29358;SDS011;16347;53.232;6.556;2023-09-19T03:45:18;9.10;;;1.73;;
29358;SDS011;16347;53.232;6.556;2023-09-19T03:47:49;11.83;;;2.33;;
29358;SDS011;16347;53.232;6.556;2023-09-19T03:50:19;14.32;;;2.20;;
29358;SDS011;16347;53.232;6.556;2023-09-19T03:52:48;9.10;;;1.98;;
29358;SDS011;16347;53.232;6.556;2023-09-19T03:55:17;12.07;;;2.00;;
29358;SDS011;16347;53.232;6.556;2023-09-19T03:57:47;8.40;;;2.03;;
29358;SDS011;16347;53.232;6.556;2023-09-19T04:00:18;11.05;;;1.77;;
29358;SDS011;16347;53.232;6.556;2023-09-19T04:02:48;13.82;;;1.85;;
29358;SDS011;16347;53.232;6.556;2023-09-19T04:05:16;13.93;;;2.40;;
29358;SDS011;16347;53.232;6.556;2023-09-19T04:07:45;12.65;;;1.92;;
29358;SDS011;16347;53.232;6.556;2023-09-19T04:10:13;11.27;;;2.30;;
29358;SDS011;16347;53.232;6.556;2023-09-19T04:12:44;8.35;;;2.10;;
29358;SDS011;16347;53.232;6.556;2023-09-19T04:15:20;24.55;;;2.92;;
29358;SDS011;16347;53.232;6.556;2023-09-19T04:17:51;10.70;;;2.28;;
29358;SDS011;16347;53.232;6.556;2023-09-19T04:20:19;20.10;;;3.08;;
29358;SDS011;16347;53.232;6.556;2023-09-19T04:22:49;10.55;;;2.90;;
29358;SDS011;16347;53.232;6.556;2023-09-19T04:25:17;16.50;;;2.13;;
29358;SDS011;16347;53.232;6.556;2023-09-19T04:27:45;6.05;;;1.88;;
29358;SDS011;16347;53.232;6.556;2023-09-19T04:30:14;13.00;;;1.98;;
29358;SDS011;16347;53.232;6.556;2023-09-19T04:32:43;11.32;;;1.80;;
29358;SDS011;16347;53.232;6.556;2023-09-19T04:35:17;11.43;;;2.00;;
29358;SDS011;16347;53.232;6.556;2023-09-19T04:37:45;8.07;;;1.92;;
29358;SDS011;16347;53.232;6.556;2023-09-19T04:40:14;10.18;;;2.17;;
29358;SDS011;16347;53.232;6.556;2023-09-19T04:42:44;12.23;;;2.08;;
29358;SDS011;16347;53.232;6.556;2023-09-19T04:45:13;18.77;;;2.90;;
29358;SDS011;16347;53.232;6.556;2023-09-19T04:47:41;11.98;;;2.72;;
29358;SDS011;16347;53.232;6.556;2023-09-19T04:50:11;10.30;;;2.20;;
29358;SDS011;16347;53.232;6.556;2023-09-19T04:52:40;10.80;;;2.20;;
29358;SDS011;16347;53.232;6.556;2023-09-19T04:55:12;19.23;;;2.42;;
29358;SDS011;16347;53.232;6.556;2023-09-19T04:57:43;9.10;;;2.22;;
29358;SDS011;16347;53.232;6.556;2023-09-19T05:00:12;6.47;;;1.92;;
29358;SDS011;16347;53.232;6.556;2023-09-19T05:02:41;8.43;;;1.90;;
29358;SDS011;16347;53.232;6.556;2023-09-19T05:05:09;18.13;;;2.30;;
29358;SDS011;16347;53.232;6.556;2023-09-19T05:07:39;10.48;;;2.13;;
29358;SDS011;16347;53.232;6.556;2023-09-19T05:10:11;15.70;;;2.85;;
29358;SDS011;16347;53.232;6.556;2023-09-19T05:12:40;17.65;;;2.28;;
29358;SDS011;16347;53.232;6.556;2023-09-19T05:15:09;19.60;;;2.95;;
29358;SDS011;16347;53.232;6.556;2023-09-19T05:17:37;8.23;;;1.85;;
29358;SDS011;16347;53.232;6.556;2023-09-19T05:20:06;11.93;;;2.35;;
29358;SDS011;16347;53.232;6.556;2023-09-19T05:22:40;9.20;;;1.73;;
29358;SDS011;16347;53.232;6.556;2023-09-19T05:25:09;14.00;;;2.17;;
29358;SDS011;16347;53.232;6.556;2023-09-19T05:27:39;16.90;;;2.55;;
29358;SDS011;16347;53.232;6.556;2023-09-19T05:30:09;12.55;;;2.40;;
29358;SDS011;16347;53.232;6.556;2023-09-19T05:32:40;8.30;;;2.22;;
29358;SDS011;16347;53.232;6.556;2023-09-19T05:35:10;12.85;;;2.60;;
29358;SDS011;16347;53.232;6.556;2023-09-19T05:37:40;16.33;;;2.45;;
29358;SDS011;16347;53.232;6.556;2023-09-19T05:40:09;12.63;;;2.30;;
29358;SDS011;16347;53.232;6.556;2023-09-19T05:42:38;6.40;;;2.58;;
29358;SDS011;16347;53.232;6.556;2023-09-19T05:45:08;10.68;;;2.08;;
29358;SDS011;16347;53.232;6.556;2023-09-19T05:47:38;11.15;;;2.55;;
29358;SDS011;16347;53.232;6.556;2023-09-19T05:50:11;13.45;;;2.17;;
29358;SDS011;16347;53.232;6.556;2023-09-19T05:52:42;25.90;;;3.30;;
29358;SDS011;16347;53.232;6.556;2023-09-19T05:55:10;10.48;;;2.10;;
29358;SDS011;16347;53.232;6.556;2023-09-19T05:57:38;16.20;;;2.47;;
29358;SDS011;16347;53.232;6.556;2023-09-19T06:00:06;20.50;;;3.25;;
29358;SDS011;16347;53.232;6.556;2023-09-19T06:02:37;9.48;;;2.53;;
29358;SDS011;16347;53.232;6.556;2023-09-19T06:05:06;14.73;;;2.47;;
29358;SDS011;16347;53.232;6.556;2023-09-19T06:07:36;15.02;;;2.85;;
29358;SDS011;16347;53.232;6.556;2023-09-19T06:10:06;9.82;;;2.47;;
29358;SDS011;16347;53.232;6.556;2023-09-19T06:12:37;16.33;;;2.53;;
29358;SDS011;16347;53.232;6.556;2023-09-19T06:15:06;17.67;;;2.90;;
29358;SDS011;16347;53.232;6.556;2023-09-19T06:17:35;12.15;;;2.53;;
29358;SDS011;16347;53.232;6.556;2023-09-19T06:20:04;15.77;;;2.53;;
29358;SDS011;16347;53.232;6.556;2023-09-19T06:22:39;17.70;;;3.08;;
29358;SDS011;16347;53.232;6.556;2023-09-19T06:25:09;11.23;;;2.30;;
29358;SDS011;16347;53.232;6.556;2023-09-19T06:27:39;19.38;;;2.33;;
29358;SDS011;16347;53.232;6.556;2023-09-19T06:30:09;14.68;;;2.92;;
29358;SDS011;16347;53.232;6.556;2023-09-19T06:32:38;12.98;;;2.28;;
29358;SDS011;16347;53.232;6.556;2023-09-19T06:35:07;13.27;;;2.38;;
29358;SDS011;16347;53.232;6.556;2023-09-19T06:37:37;21.33;;;3.10;;
29358;SDS011;16347;53.232;6.556;2023-09-19T06:40:07;18.65;;;2.72;;
29358;SDS011;16347;53.232;6.556;2023-09-19T06:42:41;8.50;;;2.28;;
29358;SDS011;16347;53.232;6.556;2023-09-19T06:45:11;16.65;;;2.85;;
29358;SDS011;16347;53.232;6.556;2023-09-19T06:47:40;10.75;;;1.95;;
29358;SDS011;16347;53.232;6.556;2023-09-19T06:50:09;22.55;;;3.20;;
29358;SDS011;16347;53.232;6.556;2023-09-19T06:52:40;11.93;;;2.58;;
29358;SDS011;16347;53.232;6.556;2023-09-19T06:55:08;8.65;;;2.13;;
29358;SDS011;16347;53.232;6.556;2023-09-19T06:57:39;18.77;;;2.70;;
29358;SDS011;16347;53.232;6.556;2023-09-19T07:00:11;12.85;;;2.25;;
29358;SDS011;16347;53.232;6.556;2023-09-19T07:02:45;14.80;;;2.60;;
29358;SDS011;16347;53.232;6.556;2023-09-19T07:05:21;19.65;;;3.03;;
29358;SDS011;16347;53.232;6.556;2023-09-19T07:07:49;16.92;;;3.03;;
29358;SDS011;16347;53.232;6.556;2023-09-19T07:10:18;13.80;;;2.13;;
29358;SDS011;16347;53.232;6.556;2023-09-19T07:12:46;14.68;;;2.28;;
29358;SDS011;16347;53.232;6.556;2023-09-19T07:15:15;13.07;;;1.83;;
29358;SDS011;16347;53.232;6.556;2023-09-19T07:17:43;10.10;;;1.80;;
29358;SDS011;16347;53.232;6.556;2023-09-19T07:20:13;11.30;;;3.17;;
29358;SDS011;16347;53.232;6.556;2023-09-19T07:22:42;13.55;;;2.78;;
29358;SDS011;16347;53.232;6.556;2023-09-19T07:25:10;14.57;;;3.15;;
29358;SDS011;16347;53.232;6.556;2023-09-19T07:27:40;16.08;;;2.97;;
29358;SDS011;16347;53.232;6.556;2023-09-19T07:30:08;16.27;;;3.13;;
29358;SDS011;16347;53.232;6.556;2023-09-19T07:32:39;20.00;;;2.75;;
29358;SDS011;16347;53.232;6.556;2023-09-19T07:35:07;17.58;;;3.13;;
29358;SDS011;16347;53.232;6.556;2023-09-19T07:37:35;15.20;;;2.20;;
29358;SDS011;16347;53.232;6.556;2023-09-19T07:40:04;13.73;;;2.58;;
29358;SDS011;16347;53.232;6.556;2023-09-19T07:42:33;15.68;;;2.28;;
29358;SDS011;16347;53.232;6.556;2023-09-19T07:45:01;17.42;;;3.15;;
29358;SDS011;16347;53.232;6.556;2023-09-19T07:47:30;11.20;;;2.90;;
29358;SDS011;16347;53.232;6.556;2023-09-19T07:50:00;15.02;;;3.03;;
29358;SDS011;16347;53.232;6.556;2023-09-19T07:52:30;14.80;;;2.75;;
29358;SDS011;16347;53.232;6.556;2023-09-19T07:55:00;11.60;;;2.65;;
29358;SDS011;16347;53.232;6.556;2023-09-19T07:57:35;20.52;;;2.78;;
29358;SDS011;16347;53.232;6.556;2023-09-19T08:00:04;8.95;;;2.63;;
29358;SDS011;16347;53.232;6.556;2023-09-19T08:02:39;11.30;;;2.22;;
29358;SDS011;16347;53.232;6.556;2023-09-19T08:05:10;17.27;;;3.05;;
29358;SDS011;16347;53.232;6.556;2023-09-19T08:07:42;15.45;;;2.83;;
29358;SDS011;16347;53.232;6.556;2023-09-19T08:10:12;19.80;;;2.92;;
29358;SDS011;16347;53.232;6.556;2023-09-19T08:12:42;14.57;;;2.75;;
29358;SDS011;16347;53.232;6.556;2023-09-19T08:15:13;11.30;;;2.25;;
29358;SDS011;16347;53.232;6.556;2023-09-19T08:17:41;14.85;;;2.80;;
29358;SDS011;16347;53.232;6.556;2023-09-19T08:20:11;15.32;;;2.28;;
29358;SDS011;16347;53.232;6.556;2023-09-19T08:22:43;17.58;;;2.95;;
29358;SDS011;16347;53.232;6.556;2023-09-19T08:25:14;10.52;;;2.53;;
29358;SDS011;16347;53.232;6.556;2023-09-19T08:27:44;19.33;;;3.25;;
29358;SDS011;16347;53.232;6.556;2023-09-19T08:30:14;11.85;;;2.40;;
29358;SDS011;16347;53.232;6.556;2023-09-19T08:32:42;17.48;;;2.85;;
29358;SDS011;16347;53.232;6.556;2023-09-19T08:35:12;12.90;;;2.40;;
29358;SDS011;16347;53.232;6.556;2023-09-19T08:37:41;14.13;;;3.65;;
29358;SDS011;16347;53.232;6.556;2023-09-19T08:40:11;18.45;;;2.60;;
29358;SDS011;16347;53.232;6.556;2023-09-19T08:42:49;12.60;;;3.03;;
29358;SDS011;16347;53.232;6.556;2023-09-19T08:45:19;12.98;;;2.72;;
29358;SDS011;16347;53.232;6.556;2023-09-19T08:48:00;13.15;;;2.83;;
29358;SDS011;16347;53.232;6.556;2023-09-19T08:50:43;14.38;;;2.15;;
29358;SDS011;16347;53.232;6.556;2023-09-19T08:53:21;18.58;;;2.85;;
29358;SDS011;16347;53.232;6.556;2023-09-19T08:55:53;17.98;;;3.25;;
29358;SDS011;16347;53.232;6.556;2023-09-19T08:58:25;14.75;;;3.47;;
29358;SDS011;16347;53.232;6.556;2023-09-19T09:00:56;17.45;;;3.53;;
29358;SDS011;16347;53.232;6.556;2023-09-19T09:03:29;17.20;;;3.63;;
29358;SDS011;16347;53.232;6.556;2023-09-19T09:06:02;14.20;;;3.13;;
29358;SDS011;16347;53.232;6.556;2023-09-19T09:08:30;18.80;;;2.92;;
29358;SDS011;16347;53.232;6.556;2023-09-19T09:10:59;15.02;;;3.08;;
29358;SDS011;16347;53.232;6.556;2023-09-19T09:13:27;16.90;;;2.78;;
29358;SDS011;16347;53.232;6.556;2023-09-19T09:15:57;11.38;;;3.17;;
29358;SDS011;16347;53.232;6.556;2023-09-19T09:18:25;16.67;;;3.17;;
29358;SDS011;16347;53.232;6.556;2023-09-19T09:20:53;13.40;;;3.05;;
29358;SDS011;16347;53.232;6.556;2023-09-19T09:23:23;17.48;;;3.03;;
29358;SDS011;16347;53.232;6.556;2023-09-19T09:25:55;13.05;;;2.58;;
29358;SDS011;16347;53.232;6.556;2023-09-19T09:28:26;13.23;;;3.25;;
29358;SDS011;16347;53.232;6.556;2023-09-19T09:30:55;15.43;;;3.45;;
29358;SDS011;16347;53.232;6.556;2023-09-19T09:33:24;17.35;;;3.63;;
29358;SDS011;16347;53.232;6.556;2023-09-19T09:35:54;11.07;;;2.78;;
29358;SDS011;16347;53.232;6.556;2023-09-19T09:38:26;23.13;;;3.60;;
29358;SDS011;16347;53.232;6.556;2023-09-19T09:40:59;17.42;;;4.15;;
29358;SDS011;16347;53.232;6.556;2023-09-19T09:43:29;21.73;;;3.53;;
29358;SDS011;16347;53.232;6.556;2023-09-19T09:46:07;16.50;;;3.10;;
29358;SDS011;16347;53.232;6.556;2023-09-19T09:49:00;23.20;;;4.10;;
29358;SDS011;16347;53.232;6.556;2023-09-19T09:51:59;16.55;;;3.60;;
29358;SDS011;16347;53.232;6.556;2023-09-19T09:57:04;16.52;;;3.15;;
29358;SDS011;16347;53.232;6.556;2023-09-19T09:59:44;16.92;;;2.75;;
29358;SDS011;16347;53.232;6.556;2023-09-19T10:02:17;16.30;;;3.00;;
29358;SDS011;16347;53.232;6.556;2023-09-19T10:04:51;21.15;;;3.47;;
29358;SDS011;16347;53.232;6.556;2023-09-19T10:07:26;20.27;;;3.42;;
29358;SDS011;16347;53.232;6.556;2023-09-19T10:10:04;16.40;;;3.45;;
29358;SDS011;16347;53.232;6.556;2023-09-19T10:12:42;15.98;;;3.20;;
29358;SDS011;16347;53.232;6.556;2023-09-19T10:15:15;21.27;;;3.47;;
29358;SDS011;16347;53.232;6.556;2023-09-19T10:17:47;18.65;;;3.38;;
29358;SDS011;16347;53.232;6.556;2023-09-19T10:20:16;16.90;;;2.83;;
29358;SDS011;16347;53.232;6.556;2023-09-19T10:23:03;19.30;;;2.95;;
29358;SDS011;16347;53.232;6.556;2023-09-19T10:25:38;20.15;;;3.38;;
29358;SDS011;16347;53.232;6.556;2023-09-19T10:28:08;22.65;;;3.42;;
29358;SDS011;16347;53.232;6.556;2023-09-19T10:30:40;14.90;;;3.40;;
29358;SDS011;16347;53.232;6.556;2023-09-19T10:33:10;14.48;;;2.92;;
29358;SDS011;16347;53.232;6.556;2023-09-19T10:35:39;22.00;;;3.65;;
29358;SDS011;16347;53.232;6.556;2023-09-19T10:38:10;20.55;;;3.67;;
29358;SDS011;16347;53.232;6.556;2023-09-19T10:40:40;15.98;;;4.07;;
29358;SDS011;16347;53.232;6.556;2023-09-19T10:43:11;13.68;;;3.10;;
29358;SDS011;16347;53.232;6.556;2023-09-19T10:45:41;20.20;;;3.30;;
29358;SDS011;16347;53.232;6.556;2023-09-19T10:48:11;20.35;;;3.47;;
29358;SDS011;16347;53.232;6.556;2023-09-19T10:50:42;17.85;;;3.35;;
29358;SDS011;16347;53.232;6.556;2023-09-19T10:53:12;25.77;;;3.45;;
29358;SDS011;16347;53.232;6.556;2023-09-19T10:55:48;15.93;;;3.30;;
29358;SDS011;16347;53.232;6.556;2023-09-19T10:58:24;15.98;;;3.58;;
29358;SDS011;16347;53.232;6.556;2023-09-19T11:00:56;24.50;;;4.30;;
29358;SDS011;16347;53.232;6.556;2023-09-19T11:03:28;22.95;;;3.58;;
29358;SDS011;16347;53.232;6.556;2023-09-19T11:06:05;18.60;;;3.13;;
29358;SDS011;16347;53.232;6.556;2023-09-19T11:08:52;16.25;;;3.33;;
29358;SDS011;16347;53.232;6.556;2023-09-19T11:11:41;26.55;;;4.20;;
29358;SDS011;16347;53.232;6.556;2023-09-19T11:14:37;20.08;;;3.92;;
29358;SDS011;16347;53.232;6.556;2023-09-19T11:20:22;22.77;;;3.50;;
29358;SDS011;16347;53.232;6.556;2023-09-19T11:23:20;15.75;;;3.78;;
29358;SDS011;16347;53.232;6.556;2023-09-19T11:25:52;13.77;;;3.17;;
29358;SDS011;16347;53.232;6.556;2023-09-19T11:28:29;15.45;;;3.08;;
29358;SDS011;16347;53.232;6.556;2023-09-19T11:40:29;16.55;;;3.13;;
29358;SDS011;16347;53.232;6.556;2023-09-19T11:42:57;22.20;;;3.33;;
29358;SDS011;16347;53.232;6.556;2023-09-19T11:48:34;16.77;;;3.42;;
29358;SDS011;16347;53.232;6.556;2023-09-19T11:51:11;16.45;;;2.70;;
29358;SDS011;16347;53.232;6.556;2023-09-19T11:56:17;19.88;;;2.80;;
29358;SDS011;16347;53.232;6.556;2023-09-19T11:58:48;20.55;;;3.50;;
29358;SDS011;16347;53.232;6.556;2023-09-19T12:01:23;15.05;;;2.90;;
29358;SDS011;16347;53.232;6.556;2023-09-19T12:03:56;15.82;;;2.97;;
29358;SDS011;16347;53.232;6.556;2023-09-19T12:06:26;19.05;;;3.65;;
29358;SDS011;16347;53.232;6.556;2023-09-19T12:08:56;15.18;;;3.42;;
29358;SDS011;16347;53.232;6.556;2023-09-19T12:11:27;22.13;;;3.25;;
29358;SDS011;16347;53.232;6.556;2023-09-19T12:14:00;14.75;;;3.00;;
29358;SDS011;16347;53.232;6.556;2023-09-19T12:16:30;20.77;;;3.40;;
29358;SDS011;16347;53.232;6.556;2023-09-19T12:19:17;16.50;;;3.35;;
29358;SDS011;16347;53.232;6.556;2023-09-19T12:21:53;19.80;;;3.33;;
29358;SDS011;16347;53.232;6.556;2023-09-19T12:24:23;20.80;;;2.88;;
29358;SDS011;16347;53.232;6.556;2023-09-19T12:26:59;12.70;;;3.00;;
29358;SDS011;16347;53.232;6.556;2023-09-19T12:29:31;28.33;;;3.25;;
29358;SDS011;16347;53.232;6.556;2023-09-19T12:32:02;22.35;;;3.45;;
29358;SDS011;16347;53.232;6.556;2023-09-19T12:34:32;13.25;;;2.83;;
29358;SDS011;16347;53.232;6.556;2023-09-19T12:37:05;17.05;;;2.80;;
29358;SDS011;16347;53.232;6.556;2023-09-19T12:39:38;18.50;;;3.03;;
29358;SDS011;16347;53.232;6.556;2023-09-19T12:42:09;10.80;;;3.72;;
29358;SDS011;16347;53.232;6.556;2023-09-19T12:44:41;20.40;;;2.80;;
29358;SDS011;16347;53.232;6.556;2023-09-19T12:47:15;11.98;;;2.28;;
29358;SDS011;16347;53.232;6.556;2023-09-19T12:50:05;16.70;;;2.92;;
29358;SDS011;16347;53.232;6.556;2023-09-19T12:52:39;18.20;;;2.42;;
29358;SDS011;16347;53.232;6.556;2023-09-19T12:55:19;13.98;;;3.25;;
29358;SDS011;16347;53.232;6.556;2023-09-19T12:57:58;20.83;;;2.88;;
29358;SDS011;16347;53.232;6.556;2023-09-19T13:00:32;8.17;;;1.90;;
29358;SDS011;16347;53.232;6.556;2023-09-19T13:03:18;12.93;;;2.50;;
29358;SDS011;16347;53.232;6.556;2023-09-19T13:05:53;14.27;;;3.58;;
29358;SDS011;16347;53.232;6.556;2023-09-19T13:08:25;14.10;;;2.53;;
29358;SDS011;16347;53.232;6.556;2023-09-19T13:13:30;16.42;;;2.42;;
29358;SDS011;16347;53.232;6.556;2023-09-19T13:15:58;16.98;;;2.50;;
29358;SDS011;16347;53.232;6.556;2023-09-19T13:18:29;16.27;;;2.92;;
29358;SDS011;16347;53.232;6.556;2023-09-19T13:21:05;8.48;;;1.88;;
29358;SDS011;16347;53.232;6.556;2023-09-19T13:23:34;9.68;;;2.20;;
29358;SDS011;16347;53.232;6.556;2023-09-19T13:26:03;16.55;;;2.78;;
29358;SDS011;16347;53.232;6.556;2023-09-19T13:28:33;27.13;;;2.90;;
29358;SDS011;16347;53.232;6.556;2023-09-19T13:31:01;15.38;;;2.90;;
29358;SDS011;16347;53.232;6.556;2023-09-19T13:33:30;13.95;;;2.25;;
29358;SDS011;16347;53.232;6.556;2023-09-19T13:35:59;14.02;;;2.67;;
29358;SDS011;16347;53.232;6.556;2023-09-19T13:38:27;7.07;;;1.90;;
29358;SDS011;16347;53.232;6.556;2023-09-19T13:40:54;6.38;;;1.85;;
29358;SDS011;16347;53.232;6.556;2023-09-19T13:43:22;10.85;;;2.45;;
29358;SDS011;16347;53.232;6.556;2023-09-19T13:45:51;17.13;;;2.33;;
29358;SDS011;16347;53.232;6.556;2023-09-19T13:48:19;14.70;;;2.53;;
29358;SDS011;16347;53.232;6.556;2023-09-19T13:50:50;8.20;;;2.00;;
29358;SDS011;16347;53.232;6.556;2023-09-19T13:53:18;9.43;;;1.55;;
29358;SDS011;16347;53.232;6.556;2023-09-19T13:55:46;9.00;;;1.67;;
29358;SDS011;16347;53.232;6.556;2023-09-19T13:58:14;12.68;;;2.25;;
29358;SDS011;16347;53.232;6.556;2023-09-19T14:00:42;8.73;;;2.40;;
29358;SDS011;16347;53.232;6.556;2023-09-19T14:03:10;8.05;;;1.67;;
29358;SDS011;16347;53.232;6.556;2023-09-19T14:05:42;10.20;;;1.70;;
29358;SDS011;16347;53.232;6.556;2023-09-19T14:08:11;14.73;;;1.73;;
29358;SDS011;16347;53.232;6.556;2023-09-19T14:10:40;6.50;;;1.73;;
29358;SDS011;16347;53.232;6.556;2023-09-19T14:13:07;11.25;;;2.17;;
29358;SDS011;16347;53.232;6.556;2023-09-19T14:15:36;15.45;;;2.35;;
29358;SDS011;16347;53.232;6.556;2023-09-19T14:18:04;9.55;;;1.60;;
29358;SDS011;16347;53.232;6.556;2023-09-19T14:20:32;7.40;;;1.52;;
29358;SDS011;16347;53.232;6.556;2023-09-19T14:23:00;11.07;;;1.95;;
29358;SDS011;16347;53.232;6.556;2023-09-19T14:25:29;12.32;;;2.10;;
29358;SDS011;16347;53.232;6.556;2023-09-19T14:27:57;10.45;;;1.80;;
29358;SDS011;16347;53.232;6.556;2023-09-19T14:30:25;8.50;;;1.95;;
29358;SDS011;16347;53.232;6.556;2023-09-19T14:32:54;18.30;;;1.75;;
29358;SDS011;16347;53.232;6.556;2023-09-19T14:35:21;6.70;;;1.50;;
29358;SDS011;16347;53.232;6.556;2023-09-19T14:37:49;9.00;;;1.65;;
29358;SDS011;16347;53.232;6.556;2023-09-19T14:40:17;18.50;;;3.03;;
29358;SDS011;16347;53.232;6.556;2023-09-19T14:42:47;8.23;;;2.00;;
29358;SDS011;16347;53.232;6.556;2023-09-19T14:45:18;6.00;;;1.40;;
29358;SDS011;16347;53.232;6.556;2023-09-19T14:47:46;15.50;;;2.65;;
29358;SDS011;16347;53.232;6.556;2023-09-19T14:50:14;10.43;;;2.10;;
29358;SDS011;16347;53.232;6.556;2023-09-19T14:52:42;8.80;;;1.73;;
29358;SDS011;16347;53.232;6.556;2023-09-19T14:55:10;10.43;;;1.98;;
29358;SDS011;16347;53.232;6.556;2023-09-19T14:57:40;10.13;;;2.13;;
29358;SDS011;16347;53.232;6.556;2023-09-19T15:00:13;9.90;;;1.80;;
29358;SDS011;16347;53.232;6.556;2023-09-19T15:02:43;8.25;;;1.45;;
29358;SDS011;16347;53.232;6.556;2023-09-19T15:05:12;12.75;;;1.77;;
29358;SDS011;16347;53.232;6.556;2023-09-19T15:07:45;10.00;;;2.08;;
29358;SDS011;16347;53.232;6.556;2023-09-19T15:10:13;4.70;;;1.52;;
29358;SDS011;16347;53.232;6.556;2023-09-19T15:12:42;12.48;;;1.60;;
29358;SDS011;16347;53.232;6.556;2023-09-19T15:15:10;9.45;;;2.33;;
29358;SDS011;16347;53.232;6.556;2023-09-19T15:17:40;8.70;;;2.13;;
29358;SDS011;16347;53.232;6.556;2023-09-19T15:20:09;9.35;;;2.08;;
29358;SDS011;16347;53.232;6.556;2023-09-19T15:22:40;8.57;;;1.50;;